sensor_id;sensor_type;location;lat;lon;timestamp;temperature;humidity
9425;DHT22;17139;52.140;11.636;2024-02-28T00:01:52;3.90;62.00
9425;DHT22;17139;52.140;11.636;2024-02-28T00:04:19;3.80;62.30
9425;DHT22;17139;52.140;11.636;2024-02-28T00:06:45;4.20;62.10
9425;DHT22;17139;52.140;11.636;2024-02-28T00:09:11;4.10;61.70
9425;DHT22;17139;52.140;11.636;2024-02-28T00:11:42;4.00;62.00
9425;DHT22;17139;52.140;11.636;2024-02-28T00:14:09;3.90;62.30
9425;DHT22;17139;52.140;11.636;2024-02-28T00:16:35;3.80;62.50
9425;DHT22;17139;52.140;11.636;2024-02-28T00:19:01;3.70;62.70
9425;DHT22;17139;52.140;11.636;2024-02-28T00:21:27;3.70;62.80
9425;DHT22;17139;52.140;11.636;2024-02-28T00:23:53;3.70;62.80
9425;DHT22;17139;52.140;11.636;2024-02-28T00:26:19;3.70;62.80
9425;DHT22;17139;52.140;11.636;2024-02-28T00:28:45;3.70;62.80
9425;DHT22;17139;52.140;11.636;2024-02-28T00:31:12;3.70;62.80
9425;DHT22;17139;52.140;11.636;2024-02-28T00:33:38;3.60;62.70
9425;DHT22;17139;52.140;11.636;2024-02-28T00:36:04;3.60;62.90
9425;DHT22;17139;52.140;11.636;2024-02-28T00:38:30;3.60;62.90
9425;DHT22;17139;52.140;11.636;2024-02-28T00:40:56;3.60;62.90
9425;DHT22;17139;52.140;11.636;2024-02-28T00:43:22;3.60;62.80
9425;DHT22;17139;52.140;11.636;2024-02-28T00:45:48;3.50;62.60
9425;DHT22;17139;52.140;11.636;2024-02-28T00:48:15;3.50;62.90
9425;DHT22;17139;52.140;11.636;2024-02-28T00:50:41;3.40;63.00
9425;DHT22;17139;52.140;11.636;2024-02-28T00:53:07;4.30;61.80
9425;DHT22;17139;52.140;11.636;2024-02-28T00:55:33;4.10;61.30
9425;DHT22;17139;52.140;11.636;2024-02-28T00:57:59;3.90;61.80
9425;DHT22;17139;52.140;11.636;2024-02-28T01:00:25;3.70;62.20
9425;DHT22;17139;52.140;11.636;2024-02-28T01:02:51;3.70;62.60
9425;DHT22;17139;52.140;11.636;2024-02-28T01:05:18;3.60;62.70
9425;DHT22;17139;52.140;11.636;2024-02-28T01:07:44;3.50;62.80
9425;DHT22;17139;52.140;11.636;2024-02-28T01:10:10;3.50;62.90
9425;DHT22;17139;52.140;11.636;2024-02-28T01:12:37;3.40;63.00
9425;DHT22;17139;52.140;11.636;2024-02-28T01:15:03;3.40;63.10
9425;DHT22;17139;52.140;11.636;2024-02-28T01:17:29;3.40;63.10
9425;DHT22;17139;52.140;11.636;2024-02-28T01:19:55;3.40;63.10
9425;DHT22;17139;52.140;11.636;2024-02-28T01:22:22;3.40;63.10
9425;DHT22;17139;52.140;11.636;2024-02-28T01:24:49;3.40;63.10
9425;DHT22;17139;52.140;11.636;2024-02-28T01:27:14;3.40;63.10
9425;DHT22;17139;52.140;11.636;2024-02-28T01:29:40;3.30;62.90
9425;DHT22;17139;52.140;11.636;2024-02-28T01:32:07;4.00;62.20
9425;DHT22;17139;52.140;11.636;2024-02-28T01:34:32;3.80;61.40
9425;DHT22;17139;52.140;11.636;2024-02-28T01:36:58;3.70;62.00
9425;DHT22;17139;52.140;11.636;2024-02-28T01:39:26;3.80;62.10
9425;DHT22;17139;52.140;11.636;2024-02-28T01:41:52;3.70;62.50
9425;DHT22;17139;52.140;11.636;2024-02-28T01:44:18;3.50;62.10
9425;DHT22;17139;52.140;11.636;2024-02-28T01:46:44;3.40;62.50
9425;DHT22;17139;52.140;11.636;2024-02-28T01:49:10;3.30;62.50
9425;DHT22;17139;52.140;11.636;2024-02-28T01:51:36;3.20;62.60
9425;DHT22;17139;52.140;11.636;2024-02-28T01:54:03;3.20;62.80
9425;DHT22;17139;52.140;11.636;2024-02-28T01:56:30;3.10;62.80
9425;DHT22;17139;52.140;11.636;2024-02-28T01:58:57;3.10;62.90
9425;DHT22;17139;52.140;11.636;2024-02-28T02:01:23;3.20;63.00
9425;DHT22;17139;52.140;11.636;2024-02-28T02:03:49;3.20;63.00
9425;DHT22;17139;52.140;11.636;2024-02-28T02:06:15;3.20;62.80
9425;DHT22;17139;52.140;11.636;2024-02-28T02:08:41;3.30;62.90
9425;DHT22;17139;52.140;11.636;2024-02-28T02:11:08;3.30;62.90
9425;DHT22;17139;52.140;11.636;2024-02-28T02:13:35;3.30;62.80
9425;DHT22;17139;52.140;11.636;2024-02-28T02:16:01;3.30;62.90
9425;DHT22;17139;52.140;11.636;2024-02-28T02:18:27;3.20;62.70
9425;DHT22;17139;52.140;11.636;2024-02-28T02:20:59;3.20;62.80
9425;DHT22;17139;52.140;11.636;2024-02-28T02:23:27;3.20;62.80
9425;DHT22;17139;52.140;11.636;2024-02-28T02:25:53;3.20;62.80
9425;DHT22;17139;52.140;11.636;2024-02-28T02:28:19;3.20;62.90
9425;DHT22;17139;52.140;11.636;2024-02-28T02:30:45;3.20;62.90
9425;DHT22;17139;52.140;11.636;2024-02-28T02:33:11;3.20;63.00
9425;DHT22;17139;52.140;11.636;2024-02-28T02:35:37;3.20;63.00
9425;DHT22;17139;52.140;11.636;2024-02-28T02:38:03;3.30;63.00
9425;DHT22;17139;52.140;11.636;2024-02-28T02:40:30;3.20;62.80
9425;DHT22;17139;52.140;11.636;2024-02-28T02:42:57;3.30;62.90
9425;DHT22;17139;52.140;11.636;2024-02-28T02:45:22;3.20;62.80
9425;DHT22;17139;52.140;11.636;2024-02-28T02:47:48;3.30;62.90
9425;DHT22;17139;52.140;11.636;2024-02-28T02:50:14;3.30;62.90
9425;DHT22;17139;52.140;11.636;2024-02-28T02:52:40;3.30;62.90
9425;DHT22;17139;52.140;11.636;2024-02-28T02:55:07;3.30;62.80
9425;DHT22;17139;52.140;11.636;2024-02-28T02:57:35;3.30;62.70
9425;DHT22;17139;52.140;11.636;2024-02-28T03:00:01;3.30;62.80
9425;DHT22;17139;52.140;11.636;2024-02-28T03:02:26;3.30;62.60
9425;DHT22;17139;52.140;11.636;2024-02-28T03:04:52;3.30;62.60
9425;DHT22;17139;52.140;11.636;2024-02-28T03:07:18;3.80;61.60
9425;DHT22;17139;52.140;11.636;2024-02-28T03:09:44;3.70;61.30
9425;DHT22;17139;52.140;11.636;2024-02-28T03:12:10;3.60;61.60
9425;DHT22;17139;52.140;11.636;2024-02-28T03:14:37;3.50;61.90
9425;DHT22;17139;52.140;11.636;2024-02-28T03:17:04;3.40;61.80
9425;DHT22;17139;52.140;11.636;2024-02-28T03:19:30;3.40;62.20
9425;DHT22;17139;52.140;11.636;2024-02-28T03:21:56;3.40;62.40
9425;DHT22;17139;52.140;11.636;2024-02-28T03:24:22;3.30;62.40
9425;DHT22;17139;52.140;11.636;2024-02-28T03:26:47;3.30;62.40
9425;DHT22;17139;52.140;11.636;2024-02-28T03:29:14;3.30;62.40
9425;DHT22;17139;52.140;11.636;2024-02-28T03:31:41;3.30;62.40
9425;DHT22;17139;52.140;11.636;2024-02-28T03:34:07;3.30;62.40
9425;DHT22;17139;52.140;11.636;2024-02-28T03:36:33;3.30;62.40
9425;DHT22;17139;52.140;11.636;2024-02-28T03:38:59;3.30;62.40
9425;DHT22;17139;52.140;11.636;2024-02-28T03:41:25;3.30;62.40
9425;DHT22;17139;52.140;11.636;2024-02-28T03:43:51;3.30;62.40
9425;DHT22;17139;52.140;11.636;2024-02-28T03:46:17;3.20;62.30
9425;DHT22;17139;52.140;11.636;2024-02-28T03:48:44;3.20;62.30
9425;DHT22;17139;52.140;11.636;2024-02-28T03:51:10;3.10;62.20
9425;DHT22;17139;52.140;11.636;2024-02-28T03:53:36;3.00;62.10
9425;DHT22;17139;52.140;11.636;2024-02-28T03:56:02;3.10;62.20
9425;DHT22;17139;52.140;11.636;2024-02-28T03:58:28;3.10;62.20
9425;DHT22;17139;52.140;11.636;2024-02-28T04:00:55;3.00;62.20
9425;DHT22;17139;52.140;11.636;2024-02-28T04:03:20;3.00;62.30
9425;DHT22;17139;52.140;11.636;2024-02-28T04:05:48;3.90;60.40
9425;DHT22;17139;52.140;11.636;2024-02-28T04:08:14;3.70;60.30
9425;DHT22;17139;52.140;11.636;2024-02-28T04:10:40;3.50;61.10
9425;DHT22;17139;52.140;11.636;2024-02-28T04:13:06;3.30;61.50
9425;DHT22;17139;52.140;11.636;2024-02-28T04:15:32;3.20;61.70
9425;DHT22;17139;52.140;11.636;2024-02-28T04:17:58;3.20;62.10
9425;DHT22;17139;52.140;11.636;2024-02-28T04:20:24;3.20;62.30
9425;DHT22;17139;52.140;11.636;2024-02-28T04:22:51;3.20;62.30
9425;DHT22;17139;52.140;11.636;2024-02-28T04:25:17;3.20;62.30
9425;DHT22;17139;52.140;11.636;2024-02-28T04:27:43;3.10;62.20
9425;DHT22;17139;52.140;11.636;2024-02-28T04:30:09;3.00;62.30
9425;DHT22;17139;52.140;11.636;2024-02-28T04:32:36;3.00;62.40
9425;DHT22;17139;52.140;11.636;2024-02-28T04:35:02;3.00;62.50
9425;DHT22;17139;52.140;11.636;2024-02-28T04:37:28;2.90;62.40
9425;DHT22;17139;52.140;11.636;2024-02-28T04:39:55;2.90;62.40
9425;DHT22;17139;52.140;11.636;2024-02-28T04:42:21;2.90;62.40
9425;DHT22;17139;52.140;11.636;2024-02-28T04:44:47;3.20;61.80
9425;DHT22;17139;52.140;11.636;2024-02-28T04:47:13;3.20;61.40
9425;DHT22;17139;52.140;11.636;2024-02-28T04:49:39;3.10;61.70
9425;DHT22;17139;52.140;11.636;2024-02-28T04:52:05;3.20;61.60
9425;DHT22;17139;52.140;11.636;2024-02-28T04:54:31;3.20;61.40
9425;DHT22;17139;52.140;11.636;2024-02-28T04:56:59;3.10;61.60
9425;DHT22;17139;52.140;11.636;2024-02-28T04:59:24;3.00;61.80
9425;DHT22;17139;52.140;11.636;2024-02-28T05:01:50;3.00;62.10
9425;DHT22;17139;52.140;11.636;2024-02-28T05:04:16;2.90;62.00
9425;DHT22;17139;52.140;11.636;2024-02-28T05:06:42;2.90;62.00
9425;DHT22;17139;52.140;11.636;2024-02-28T05:09:08;3.00;62.10
9425;DHT22;17139;52.140;11.636;2024-02-28T05:11:34;2.90;62.10
9425;DHT22;17139;52.140;11.636;2024-02-28T05:14:01;3.00;62.10
9425;DHT22;17139;52.140;11.636;2024-02-28T05:16:27;3.10;62.20
9425;DHT22;17139;52.140;11.636;2024-02-28T05:18:53;3.00;61.90
9425;DHT22;17139;52.140;11.636;2024-02-28T05:21:20;3.10;62.10
9425;DHT22;17139;52.140;11.636;2024-02-28T05:23:46;3.00;62.00
9425;DHT22;17139;52.140;11.636;2024-02-28T05:26:12;3.10;62.00
9425;DHT22;17139;52.140;11.636;2024-02-28T05:28:38;3.10;61.90
9425;DHT22;17139;52.140;11.636;2024-02-28T05:31:21;4.00;59.60
9425;DHT22;17139;52.140;11.636;2024-02-28T05:33:47;4.40;58.20
9425;DHT22;17139;52.140;11.636;2024-02-28T05:36:13;4.10;59.10
9425;DHT22;17139;52.140;11.636;2024-02-28T05:38:39;3.80;59.80
9425;DHT22;17139;52.140;11.636;2024-02-28T05:41:05;3.60;60.30
9425;DHT22;17139;52.140;11.636;2024-02-28T05:43:31;3.50;60.80
9425;DHT22;17139;52.140;11.636;2024-02-28T05:45:57;3.40;61.10
9425;DHT22;17139;52.140;11.636;2024-02-28T05:48:24;3.40;61.40
9425;DHT22;17139;52.140;11.636;2024-02-28T05:50:50;3.40;61.50
9425;DHT22;17139;52.140;11.636;2024-02-28T05:53:16;3.40;61.50
9425;DHT22;17139;52.140;11.636;2024-02-28T05:55:42;3.30;61.40
9425;DHT22;17139;52.140;11.636;2024-02-28T05:58:08;3.30;61.50
9425;DHT22;17139;52.140;11.636;2024-02-28T06:00:35;3.20;61.40
9425;DHT22;17139;52.140;11.636;2024-02-28T06:03:00;3.30;61.60
9425;DHT22;17139;52.140;11.636;2024-02-28T06:05:28;3.20;61.50
9425;DHT22;17139;52.140;11.636;2024-02-28T06:07:54;3.20;61.60
9425;DHT22;17139;52.140;11.636;2024-02-28T06:10:20;3.20;61.60
9425;DHT22;17139;52.140;11.636;2024-02-28T06:12:46;3.10;61.50
9425;DHT22;17139;52.140;11.636;2024-02-28T06:15:12;4.00;59.20
9425;DHT22;17139;52.140;11.636;2024-02-28T06:17:38;3.80;59.40
9425;DHT22;17139;52.140;11.636;2024-02-28T06:20:05;3.60;60.00
9425;DHT22;17139;52.140;11.636;2024-02-28T06:22:32;4.20;58.30
9425;DHT22;17139;52.140;11.636;2024-02-28T06:24:58;4.00;58.80
9425;DHT22;17139;52.140;11.636;2024-02-28T06:27:24;3.80;59.50
9425;DHT22;17139;52.140;11.636;2024-02-28T06:29:50;3.70;60.00
9425;DHT22;17139;52.140;11.636;2024-02-28T06:32:16;3.50;60.10
9425;DHT22;17139;52.140;11.636;2024-02-28T06:34:42;3.50;60.40
9425;DHT22;17139;52.140;11.636;2024-02-28T06:37:08;3.50;60.60
9425;DHT22;17139;52.140;11.636;2024-02-28T06:39:35;3.40;60.60
9425;DHT22;17139;52.140;11.636;2024-02-28T06:42:01;3.40;60.70
9425;DHT22;17139;52.140;11.636;2024-02-28T06:44:27;3.30;60.90
9425;DHT22;17139;52.140;11.636;2024-02-28T06:46:53;3.30;60.90
9425;DHT22;17139;52.140;11.636;2024-02-28T06:49:19;3.40;60.80
9425;DHT22;17139;52.140;11.636;2024-02-28T06:51:45;3.40;60.90
9425;DHT22;17139;52.140;11.636;2024-02-28T06:54:11;3.70;60.00
9425;DHT22;17139;52.140;11.636;2024-02-28T06:56:38;3.70;59.90
9425;DHT22;17139;52.140;11.636;2024-02-28T06:59:04;3.60;60.20
9425;DHT22;17139;52.140;11.636;2024-02-28T07:01:30;3.80;59.30
9425;DHT22;17139;52.140;11.636;2024-02-28T07:03:56;3.80;59.50
9425;DHT22;17139;52.140;11.636;2024-02-28T07:06:22;3.60;59.80
9425;DHT22;17139;52.140;11.636;2024-02-28T07:08:48;3.50;60.10
9425;DHT22;17139;52.140;11.636;2024-02-28T07:11:14;3.50;60.40
9425;DHT22;17139;52.140;11.636;2024-02-28T07:13:41;3.40;60.60
9425;DHT22;17139;52.140;11.636;2024-02-28T07:16:07;3.30;60.60
9425;DHT22;17139;52.140;11.636;2024-02-28T07:18:34;3.30;60.60
9425;DHT22;17139;52.140;11.636;2024-02-28T07:21:00;3.30;60.70
9425;DHT22;17139;52.140;11.636;2024-02-28T07:23:26;3.20;60.70
9425;DHT22;17139;52.140;11.636;2024-02-28T07:25:51;3.20;60.70
9425;DHT22;17139;52.140;11.636;2024-02-28T07:28:18;3.20;60.80
9425;DHT22;17139;52.140;11.636;2024-02-28T07:30:45;3.20;60.80
9425;DHT22;17139;52.140;11.636;2024-02-28T07:33:11;3.10;60.70
9425;DHT22;17139;52.140;11.636;2024-02-28T07:35:44;3.10;60.80
9425;DHT22;17139;52.140;11.636;2024-02-28T07:38:10;3.20;60.90
9425;DHT22;17139;52.140;11.636;2024-02-28T07:40:36;3.10;60.80
9425;DHT22;17139;52.140;11.636;2024-02-28T07:43:02;3.20;60.20
9425;DHT22;17139;52.140;11.636;2024-02-28T07:45:28;3.70;58.90
9425;DHT22;17139;52.140;11.636;2024-02-28T07:47:56;3.60;59.00
9425;DHT22;17139;52.140;11.636;2024-02-28T07:50:21;3.40;59.60
9425;DHT22;17139;52.140;11.636;2024-02-28T07:52:47;3.30;60.00
9425;DHT22;17139;52.140;11.636;2024-02-28T07:55:13;3.30;60.30
9425;DHT22;17139;52.140;11.636;2024-02-28T07:57:39;3.20;60.30
9425;DHT22;17139;52.140;11.636;2024-02-28T08:00:06;3.20;60.40
9425;DHT22;17139;52.140;11.636;2024-02-28T08:02:33;3.20;60.60
9425;DHT22;17139;52.140;11.636;2024-02-28T08:05:00;3.30;60.70
9425;DHT22;17139;52.140;11.636;2024-02-28T08:07:26;3.30;60.60
9425;DHT22;17139;52.140;11.636;2024-02-28T08:09:52;3.40;60.60
9425;DHT22;17139;52.140;11.636;2024-02-28T08:12:18;3.50;60.50
9425;DHT22;17139;52.140;11.636;2024-02-28T08:14:44;3.40;60.20
9425;DHT22;17139;52.140;11.636;2024-02-28T08:17:10;3.40;60.00
9425;DHT22;17139;52.140;11.636;2024-02-28T08:19:36;3.30;60.00
9425;DHT22;17139;52.140;11.636;2024-02-28T08:22:03;3.30;60.00
9425;DHT22;17139;52.140;11.636;2024-02-28T08:24:29;3.30;60.10
9425;DHT22;17139;52.140;11.636;2024-02-28T08:26:55;3.30;60.40
9425;DHT22;17139;52.140;11.636;2024-02-28T08:29:21;3.30;60.60
9425;DHT22;17139;52.140;11.636;2024-02-28T08:31:47;3.20;61.20
9425;DHT22;17139;52.140;11.636;2024-02-28T08:34:13;3.20;60.50
9425;DHT22;17139;52.140;11.636;2024-02-28T08:36:39;3.20;60.50
9425;DHT22;17139;52.140;11.636;2024-02-28T08:39:06;3.10;60.40
9425;DHT22;17139;52.140;11.636;2024-02-28T08:41:33;3.10;60.50
9425;DHT22;17139;52.140;11.636;2024-02-28T08:43:59;3.10;60.50
9425;DHT22;17139;52.140;11.636;2024-02-28T08:46:25;3.00;60.50
9425;DHT22;17139;52.140;11.636;2024-02-28T08:48:51;3.00;60.70
9425;DHT22;17139;52.140;11.636;2024-02-28T08:51:17;3.00;60.70
9425;DHT22;17139;52.140;11.636;2024-02-28T08:53:43;3.10;60.70
9425;DHT22;17139;52.140;11.636;2024-02-28T08:56:10;3.20;60.70
9425;DHT22;17139;52.140;11.636;2024-02-28T08:58:36;3.30;60.00
9425;DHT22;17139;52.140;11.636;2024-02-28T09:01:02;3.40;60.00
9425;DHT22;17139;52.140;11.636;2024-02-28T09:03:28;3.40;60.00
9425;DHT22;17139;52.140;11.636;2024-02-28T09:05:54;3.50;60.10
9425;DHT22;17139;52.140;11.636;2024-02-28T09:08:20;3.60;60.10
9425;DHT22;17139;52.140;11.636;2024-02-28T09:10:46;3.60;60.10
9425;DHT22;17139;52.140;11.636;2024-02-28T09:13:13;3.60;60.20
9425;DHT22;17139;52.140;11.636;2024-02-28T09:15:39;3.60;60.10
9425;DHT22;17139;52.140;11.636;2024-02-28T09:18:06;3.60;60.10
9425;DHT22;17139;52.140;11.636;2024-02-28T09:20:32;3.50;60.10
9425;DHT22;17139;52.140;11.636;2024-02-28T09:22:58;3.60;60.20
9425;DHT22;17139;52.140;11.636;2024-02-28T09:25:24;3.50;60.10
9425;DHT22;17139;52.140;11.636;2024-02-28T09:27:49;3.60;60.20
9425;DHT22;17139;52.140;11.636;2024-02-28T09:30:17;3.80;60.30
9425;DHT22;17139;52.140;11.636;2024-02-28T09:32:43;3.80;60.00
9425;DHT22;17139;52.140;11.636;2024-02-28T09:35:09;3.90;59.80
9425;DHT22;17139;52.140;11.636;2024-02-28T09:37:37;4.00;59.80
9425;DHT22;17139;52.140;11.636;2024-02-28T09:40:03;4.10;59.70
9425;DHT22;17139;52.140;11.636;2024-02-28T09:42:29;4.30;59.00
9425;DHT22;17139;52.140;11.636;2024-02-28T09:44:56;4.40;59.60
9425;DHT22;17139;52.140;11.636;2024-02-28T09:47:27;4.70;58.10
9425;DHT22;17139;52.140;11.636;2024-02-28T09:49:54;4.70;58.10
9425;DHT22;17139;52.140;11.636;2024-02-28T09:52:21;4.70;58.60
9425;DHT22;17139;52.140;11.636;2024-02-28T09:54:47;4.70;58.90
9425;DHT22;17139;52.140;11.636;2024-02-28T09:57:13;4.70;59.00
9425;DHT22;17139;52.140;11.636;2024-02-28T09:59:40;4.80;59.00
9425;DHT22;17139;52.140;11.636;2024-02-28T10:02:10;4.80;59.00
9425;DHT22;17139;52.140;11.636;2024-02-28T10:04:37;4.70;59.00
9425;DHT22;17139;52.140;11.636;2024-02-28T10:07:11;4.50;59.20
9425;DHT22;17139;52.140;11.636;2024-02-28T10:09:37;4.40;59.40
9425;DHT22;17139;52.140;11.636;2024-02-28T10:12:03;4.20;59.40
9425;DHT22;17139;52.140;11.636;2024-02-28T10:14:29;4.20;59.70
9425;DHT22;17139;52.140;11.636;2024-02-28T10:16:55;4.10;59.80
9425;DHT22;17139;52.140;11.636;2024-02-28T10:19:21;4.10;59.90
9425;DHT22;17139;52.140;11.636;2024-02-28T10:21:50;4.00;59.70
9425;DHT22;17139;52.140;11.636;2024-02-28T10:24:16;4.00;60.00
9425;DHT22;17139;52.140;11.636;2024-02-28T10:26:42;4.10;59.20
9425;DHT22;17139;52.140;11.636;2024-02-28T10:29:09;4.10;59.20
9425;DHT22;17139;52.140;11.636;2024-02-28T10:31:35;4.00;59.60
9425;DHT22;17139;52.140;11.636;2024-02-28T10:34:02;4.10;59.60
9425;DHT22;17139;52.140;11.636;2024-02-28T10:36:31;4.10;59.50
9425;DHT22;17139;52.140;11.636;2024-02-28T10:39:00;4.10;59.80
9425;DHT22;17139;52.140;11.636;2024-02-28T10:41:26;4.00;59.70
9425;DHT22;17139;52.140;11.636;2024-02-28T10:43:54;4.00;59.90
9425;DHT22;17139;52.140;11.636;2024-02-28T10:46:20;4.10;59.90
9425;DHT22;17139;52.140;11.636;2024-02-28T10:48:46;4.10;59.80
9425;DHT22;17139;52.140;11.636;2024-02-28T10:51:15;4.00;59.70
9425;DHT22;17139;52.140;11.636;2024-02-28T10:53:42;4.00;59.80
9425;DHT22;17139;52.140;11.636;2024-02-28T10:56:11;4.10;59.80
9425;DHT22;17139;52.140;11.636;2024-02-28T10:58:42;4.10;59.80
9425;DHT22;17139;52.140;11.636;2024-02-28T11:01:12;4.20;59.90
9425;DHT22;17139;52.140;11.636;2024-02-28T11:03:38;4.20;59.90
9425;DHT22;17139;52.140;11.636;2024-02-28T11:06:16;4.30;59.90
9425;DHT22;17139;52.140;11.636;2024-02-28T11:08:46;4.30;59.80
9425;DHT22;17139;52.140;11.636;2024-02-28T11:11:14;4.40;60.00
9425;DHT22;17139;52.140;11.636;2024-02-28T11:13:40;4.40;59.90
9425;DHT22;17139;52.140;11.636;2024-02-28T11:16:16;4.50;59.80
9425;DHT22;17139;52.140;11.636;2024-02-28T11:18:48;4.50;59.80
9425;DHT22;17139;52.140;11.636;2024-02-28T11:21:15;5.20;57.80
9425;DHT22;17139;52.140;11.636;2024-02-28T11:23:41;5.10;58.20
9425;DHT22;17139;52.140;11.636;2024-02-28T11:26:12;5.00;58.70
9425;DHT22;17139;52.140;11.636;2024-02-28T11:28:38;5.00;59.10
9425;DHT22;17139;52.140;11.636;2024-02-28T11:31:04;5.00;59.00
9425;DHT22;17139;52.140;11.636;2024-02-28T11:33:30;5.00;59.20
9425;DHT22;17139;52.140;11.636;2024-02-28T11:35:56;5.00;59.20
9425;DHT22;17139;52.140;11.636;2024-02-28T11:38:24;4.90;59.10
9425;DHT22;17139;52.140;11.636;2024-02-28T11:40:50;5.00;59.40
9425;DHT22;17139;52.140;11.636;2024-02-28T11:43:18;5.00;60.10
9425;DHT22;17139;52.140;11.636;2024-02-28T11:45:44;4.90;59.40
9425;DHT22;17139;52.140;11.636;2024-02-28T11:48:10;5.00;59.50
9425;DHT22;17139;52.140;11.636;2024-02-28T11:50:38;5.00;60.10
9425;DHT22;17139;52.140;11.636;2024-02-28T11:53:04;5.00;59.40
9425;DHT22;17139;52.140;11.636;2024-02-28T11:55:30;5.00;59.50
9425;DHT22;17139;52.140;11.636;2024-02-28T11:57:56;5.00;59.50
9425;DHT22;17139;52.140;11.636;2024-02-28T12:00:23;5.00;59.50
9425;DHT22;17139;52.140;11.636;2024-02-28T12:02:49;5.00;59.50
9425;DHT22;17139;52.140;11.636;2024-02-28T12:05:15;5.20;59.00
9425;DHT22;17139;52.140;11.636;2024-02-28T12:07:41;5.20;58.90
9425;DHT22;17139;52.140;11.636;2024-02-28T12:10:08;5.20;59.10
9425;DHT22;17139;52.140;11.636;2024-02-28T12:12:35;5.20;59.20
9425;DHT22;17139;52.140;11.636;2024-02-28T12:15:01;5.20;59.30
9425;DHT22;17139;52.140;11.636;2024-02-28T12:17:29;5.20;59.30
9425;DHT22;17139;52.140;11.636;2024-02-28T12:19:55;5.20;59.30
9425;DHT22;17139;52.140;11.636;2024-02-28T12:22:22;5.30;59.40
9425;DHT22;17139;52.140;11.636;2024-02-28T12:24:48;5.40;59.50
9425;DHT22;17139;52.140;11.636;2024-02-28T12:27:16;5.40;59.30
9425;DHT22;17139;52.140;11.636;2024-02-28T12:29:42;5.40;59.20
9425;DHT22;17139;52.140;11.636;2024-02-28T12:32:08;5.50;59.20
9425;DHT22;17139;52.140;11.636;2024-02-28T12:34:36;5.50;59.20
9425;DHT22;17139;52.140;11.636;2024-02-28T12:37:02;5.60;59.20
9425;DHT22;17139;52.140;11.636;2024-02-28T12:39:28;5.60;59.20
9425;DHT22;17139;52.140;11.636;2024-02-28T12:41:54;5.70;59.30
9425;DHT22;17139;52.140;11.636;2024-02-28T12:44:20;6.20;57.40
9425;DHT22;17139;52.140;11.636;2024-02-28T12:46:46;6.20;58.00
9425;DHT22;17139;52.140;11.636;2024-02-28T12:49:12;6.10;58.30
9425;DHT22;17139;52.140;11.636;2024-02-28T12:51:41;6.10;58.00
9425;DHT22;17139;52.140;11.636;2024-02-28T12:54:07;6.10;58.40
9425;DHT22;17139;52.140;11.636;2024-02-28T12:56:33;6.00;58.70
9425;DHT22;17139;52.140;11.636;2024-02-28T12:58:59;6.10;58.90
9425;DHT22;17139;52.140;11.636;2024-02-28T13:01:26;6.00;58.90
9425;DHT22;17139;52.140;11.636;2024-02-28T13:03:52;6.10;59.00
9425;DHT22;17139;52.140;11.636;2024-02-28T13:06:18;6.20;58.90
9425;DHT22;17139;52.140;11.636;2024-02-28T13:08:45;6.20;58.90
9425;DHT22;17139;52.140;11.636;2024-02-28T13:11:11;6.30;59.00
9425;DHT22;17139;52.140;11.636;2024-02-28T13:13:37;6.30;58.90
9425;DHT22;17139;52.140;11.636;2024-02-28T13:16:04;6.40;57.90
9425;DHT22;17139;52.140;11.636;2024-02-28T13:18:29;6.40;57.80
9425;DHT22;17139;52.140;11.636;2024-02-28T13:20:55;6.40;57.90
9425;DHT22;17139;52.140;11.636;2024-02-28T13:23:21;6.40;58.00
9425;DHT22;17139;52.140;11.636;2024-02-28T13:25:49;6.40;58.00
9425;DHT22;17139;52.140;11.636;2024-02-28T13:28:15;6.40;58.00
9425;DHT22;17139;52.140;11.636;2024-02-28T13:30:41;6.40;58.00
9425;DHT22;17139;52.140;11.636;2024-02-28T13:33:07;6.50;58.00
9425;DHT22;17139;52.140;11.636;2024-02-28T13:35:33;6.50;58.00
9425;DHT22;17139;52.140;11.636;2024-02-28T13:37:58;6.50;57.90
9425;DHT22;17139;52.140;11.636;2024-02-28T13:40:24;7.30;55.20
9425;DHT22;17139;52.140;11.636;2024-02-28T13:42:52;7.40;55.20
9425;DHT22;17139;52.140;11.636;2024-02-28T13:45:18;7.60;54.40
9425;DHT22;17139;52.140;11.636;2024-02-28T13:47:44;8.00;53.00
9425;DHT22;17139;52.140;11.636;2024-02-28T13:50:10;7.60;54.60
9425;DHT22;17139;52.140;11.636;2024-02-28T13:52:36;7.30;55.80
9425;DHT22;17139;52.140;11.636;2024-02-28T13:55:02;7.20;56.40
9425;DHT22;17139;52.140;11.636;2024-02-28T13:57:28;7.10;56.70
9425;DHT22;17139;52.140;11.636;2024-02-28T13:59:55;7.00;57.00
9425;DHT22;17139;52.140;11.636;2024-02-28T14:02:21;7.40;55.30
9425;DHT22;17139;52.140;11.636;2024-02-28T14:04:47;8.00;53.40
9425;DHT22;17139;52.140;11.636;2024-02-28T14:07:13;8.40;52.20
9425;DHT22;17139;52.140;11.636;2024-02-28T14:09:39;7.90;54.00
9425;DHT22;17139;52.140;11.636;2024-02-28T14:12:06;8.00;53.00
9425;DHT22;17139;52.140;11.636;2024-02-28T14:14:32;7.70;54.30
9425;DHT22;17139;52.140;11.636;2024-02-28T14:16:59;7.40;55.40
9425;DHT22;17139;52.140;11.636;2024-02-28T14:19:25;7.30;56.10
9425;DHT22;17139;52.140;11.636;2024-02-28T14:21:51;7.10;56.40
9425;DHT22;17139;52.140;11.636;2024-02-28T14:24:17;7.00;56.60
9425;DHT22;17139;52.140;11.636;2024-02-28T14:26:43;7.00;56.90
9425;DHT22;17139;52.140;11.636;2024-02-28T14:29:09;6.90;57.20
9425;DHT22;17139;52.140;11.636;2024-02-28T14:31:35;6.90;57.20
9425;DHT22;17139;52.140;11.636;2024-02-28T14:34:02;6.90;57.30
9425;DHT22;17139;52.140;11.636;2024-02-28T14:36:28;6.90;57.50
9425;DHT22;17139;52.140;11.636;2024-02-28T14:38:54;6.90;57.60
9425;DHT22;17139;52.140;11.636;2024-02-28T14:41:20;6.80;57.50
9425;DHT22;17139;52.140;11.636;2024-02-28T14:43:46;7.00;56.90
9425;DHT22;17139;52.140;11.636;2024-02-28T14:46:12;7.00;57.00
9425;DHT22;17139;52.140;11.636;2024-02-28T14:48:38;6.90;57.20
9425;DHT22;17139;52.140;11.636;2024-02-28T14:51:06;7.10;56.50
9425;DHT22;17139;52.140;11.636;2024-02-28T14:53:32;7.00;56.70
9425;DHT22;17139;52.140;11.636;2024-02-28T14:55:57;7.00;57.20
9425;DHT22;17139;52.140;11.636;2024-02-28T14:58:23;6.90;57.50
9425;DHT22;17139;52.140;11.636;2024-02-28T15:00:49;6.80;57.60
9425;DHT22;17139;52.140;11.636;2024-02-28T15:03:15;6.70;57.50
9425;DHT22;17139;52.140;11.636;2024-02-28T15:05:41;6.70;57.60
9425;DHT22;17139;52.140;11.636;2024-02-28T15:08:09;6.70;57.80
9425;DHT22;17139;52.140;11.636;2024-02-28T15:10:36;6.60;57.80
9425;DHT22;17139;52.140;11.636;2024-02-28T15:13:02;6.60;58.00
9425;DHT22;17139;52.140;11.636;2024-02-28T15:15:27;6.60;58.10
9425;DHT22;17139;52.140;11.636;2024-02-28T15:17:53;6.60;58.10
9425;DHT22;17139;52.140;11.636;2024-02-28T15:20:20;6.50;58.10
9425;DHT22;17139;52.140;11.636;2024-02-28T15:22:46;6.50;58.20
9425;DHT22;17139;52.140;11.636;2024-02-28T15:25:13;7.00;56.30
9425;DHT22;17139;52.140;11.636;2024-02-28T15:27:39;6.90;56.80
9425;DHT22;17139;52.140;11.636;2024-02-28T15:30:06;6.60;57.30
9425;DHT22;17139;52.140;11.636;2024-02-28T15:32:32;7.10;55.80
9425;DHT22;17139;52.140;11.636;2024-02-28T15:34:58;7.30;55.10
9425;DHT22;17139;52.140;11.636;2024-02-28T15:37:24;7.00;55.90
9425;DHT22;17139;52.140;11.636;2024-02-28T15:39:50;6.70;56.80